Rondon do Para, Brazil
Current Conditions -  °F | °C
As of 4:00 PM on Friday 21 Nov 2014 (Local Time) from SBIZ Reporting Station
Few Clouds Few Clouds  
Wind Chill: 91°   Ceiling: Unl
Heat Index: 97°   Visibility: 6mi
Dew Point: 70°   Wind: 9mph
Humidity: 49%   Direction: 140°SE
Pressure: 29.74"   Gusts: NA
Location:  4.78°S, 48.07°W
Report Text: SBIZ 211900Z 14008KT 9999 FEW025 33/21 Q1007
Loading
Personal Weather Stations






























Interactive Weather Map New forecast layout! Learn more

10-Day Weather Forecast

Advertisements
Track Severe Weather on mobile